sensor_id;sensor_type;location;lat;lon;timestamp;P1;durP1;ratioP1;P2;durP2;ratioP2
39128;SDS011;24864;49.940;19.770;2023-08-06T00:01:26;30.85;;;22.02;;
39128;SDS011;24864;49.940;19.770;2023-08-06T00:03:54;41.75;;;25.13;;
39128;SDS011;24864;49.940;19.770;2023-08-06T00:06:22;42.42;;;25.00;;
39128;SDS011;24864;49.940;19.770;2023-08-06T00:08:51;35.50;;;25.45;;
39128;SDS011;24864;49.940;19.770;2023-08-06T00:11:20;58.58;;;24.40;;
39128;SDS011;24864;49.940;19.770;2023-08-06T00:13:48;35.47;;;22.98;;
39128;SDS011;24864;49.940;19.770;2023-08-06T00:16:17;45.78;;;24.80;;
39128;SDS011;24864;49.940;19.770;2023-08-06T00:18:45;71.30;;;27.17;;
39128;SDS011;24864;49.940;19.770;2023-08-06T00:21:13;1139.78;;;84.07;;
39128;SDS011;24864;49.940;19.770;2023-08-06T00:23:41;74.63;;;26.27;;
39128;SDS011;24864;49.940;19.770;2023-08-06T00:26:10;468.20;;;44.95;;
39128;SDS011;24864;49.940;19.770;2023-08-06T00:28:39;555.70;;;51.40;;
39128;SDS011;24864;49.940;19.770;2023-08-06T00:31:07;168.40;;;27.02;;
39128;SDS011;24864;49.940;19.770;2023-08-06T00:33:35;27.83;;;21.52;;
39128;SDS011;24864;49.940;19.770;2023-08-06T00:36:04;31.55;;;21.38;;
39128;SDS011;24864;49.940;19.770;2023-08-06T00:38:32;35.20;;;23.10;;
39128;SDS011;24864;49.940;19.770;2023-08-06T00:41:00;45.20;;;25.55;;
39128;SDS011;24864;49.940;19.770;2023-08-06T00:43:28;54.08;;;28.23;;
39128;SDS011;24864;49.940;19.770;2023-08-06T00:45:58;83.25;;;33.30;;
39128;SDS011;24864;49.940;19.770;2023-08-06T00:48:26;62.22;;;30.42;;
39128;SDS011;24864;49.940;19.770;2023-08-06T00:50:54;64.40;;;32.13;;
39128;SDS011;24864;49.940;19.770;2023-08-06T00:53:22;74.80;;;33.03;;
39128;SDS011;24864;49.940;19.770;2023-08-06T00:55:51;549.72;;;55.95;;
39128;SDS011;24864;49.940;19.770;2023-08-06T00:58:19;577.45;;;62.58;;
39128;SDS011;24864;49.940;19.770;2023-08-06T01:03:44;408.13;;;54.97;;
39128;SDS011;24864;49.940;19.770;2023-08-06T01:06:13;176.70;;;46.92;;
39128;SDS011;24864;49.940;19.770;2023-08-06T01:08:44;427.05;;;56.40;;
39128;SDS011;24864;49.940;19.770;2023-08-06T01:11:22;239.02;;;46.28;;
39128;SDS011;24864;49.940;19.770;2023-08-06T01:13:54;566.53;;;63.42;;
39128;SDS011;24864;49.940;19.770;2023-08-06T01:16:27;325.48;;;48.03;;
39128;SDS011;24864;49.940;19.770;2023-08-06T01:18:57;477.20;;;57.65;;
39128;SDS011;24864;49.940;19.770;2023-08-06T01:21:27;105.13;;;32.90;;
39128;SDS011;24864;49.940;19.770;2023-08-06T01:23:55;117.78;;;31.65;;
39128;SDS011;24864;49.940;19.770;2023-08-06T01:26:26;79.65;;;31.25;;
39128;SDS011;24864;49.940;19.770;2023-08-06T01:28:59;99.10;;;33.88;;
39128;SDS011;24864;49.940;19.770;2023-08-06T01:31:32;70.68;;;30.00;;
39128;SDS011;24864;49.940;19.770;2023-08-06T01:34:01;68.00;;;29.77;;
39128;SDS011;24864;49.940;19.770;2023-08-06T01:36:32;53.00;;;28.35;;
39128;SDS011;24864;49.940;19.770;2023-08-06T01:39:00;51.95;;;27.30;;
39128;SDS011;24864;49.940;19.770;2023-08-06T01:41:29;45.47;;;25.75;;
39128;SDS011;24864;49.940;19.770;2023-08-06T01:43:57;37.38;;;23.58;;
39128;SDS011;24864;49.940;19.770;2023-08-06T01:46:25;35.80;;;23.20;;
39128;SDS011;24864;49.940;19.770;2023-08-06T01:48:53;37.20;;;21.33;;
39128;SDS011;24864;49.940;19.770;2023-08-06T01:51:21;31.38;;;20.23;;
39128;SDS011;24864;49.940;19.770;2023-08-06T01:53:51;28.23;;;18.85;;
39128;SDS011;24864;49.940;19.770;2023-08-06T01:56:20;32.38;;;19.25;;
39128;SDS011;24864;49.940;19.770;2023-08-06T01:58:48;34.15;;;20.40;;
39128;SDS011;24864;49.940;19.770;2023-08-06T02:01:16;40.22;;;21.02;;
39128;SDS011;24864;49.940;19.770;2023-08-06T02:03:44;42.85;;;21.00;;
39128;SDS011;24864;49.940;19.770;2023-08-06T02:06:12;57.22;;;22.90;;
39128;SDS011;24864;49.940;19.770;2023-08-06T02:08:40;30.08;;;20.95;;
39128;SDS011;24864;49.940;19.770;2023-08-06T02:11:10;27.73;;;19.75;;
39128;SDS011;24864;49.940;19.770;2023-08-06T02:13:38;30.20;;;19.52;;
39128;SDS011;24864;49.940;19.770;2023-08-06T02:16:06;24.13;;;18.90;;
39128;SDS011;24864;49.940;19.770;2023-08-06T02:18:35;30.73;;;20.70;;
39128;SDS011;24864;49.940;19.770;2023-08-06T02:21:04;28.30;;;20.15;;
39128;SDS011;24864;49.940;19.770;2023-08-06T02:23:32;31.77;;;20.35;;
39128;SDS011;24864;49.940;19.770;2023-08-06T02:26:00;25.95;;;18.42;;
39128;SDS011;24864;49.940;19.770;2023-08-06T02:28:30;27.50;;;18.15;;
39128;SDS011;24864;49.940;19.770;2023-08-06T02:30:59;22.35;;;17.80;;
39128;SDS011;24864;49.940;19.770;2023-08-06T02:33:27;24.30;;;17.88;;
39128;SDS011;24864;49.940;19.770;2023-08-06T02:36:01;27.05;;;18.88;;
39128;SDS011;24864;49.940;19.770;2023-08-06T02:38:31;29.13;;;19.20;;
39128;SDS011;24864;49.940;19.770;2023-08-06T02:41:01;33.72;;;20.55;;
39128;SDS011;24864;49.940;19.770;2023-08-06T02:43:31;33.08;;;19.48;;
39128;SDS011;24864;49.940;19.770;2023-08-06T02:45:59;27.00;;;19.90;;
39128;SDS011;24864;49.940;19.770;2023-08-06T02:48:28;24.90;;;19.08;;
39128;SDS011;24864;49.940;19.770;2023-08-06T02:50:57;25.08;;;18.77;;
39128;SDS011;24864;49.940;19.770;2023-08-06T02:53:25;34.70;;;19.77;;
39128;SDS011;24864;49.940;19.770;2023-08-06T02:55:53;30.60;;;19.75;;
39128;SDS011;24864;49.940;19.770;2023-08-06T02:58:22;29.35;;;18.92;;
39128;SDS011;24864;49.940;19.770;2023-08-06T03:01:01;30.80;;;21.25;;
39128;SDS011;24864;49.940;19.770;2023-08-06T03:03:30;36.78;;;20.50;;
39128;SDS011;24864;49.940;19.770;2023-08-06T03:05:59;31.23;;;20.23;;
39128;SDS011;24864;49.940;19.770;2023-08-06T03:08:28;33.58;;;19.70;;
39128;SDS011;24864;49.940;19.770;2023-08-06T03:10:56;37.33;;;20.88;;
39128;SDS011;24864;49.940;19.770;2023-08-06T03:13:24;34.25;;;22.00;;
39128;SDS011;24864;49.940;19.770;2023-08-06T03:15:53;39.05;;;22.20;;
39128;SDS011;24864;49.940;19.770;2023-08-06T03:18:22;30.30;;;22.17;;
39128;SDS011;24864;49.940;19.770;2023-08-06T03:20:52;27.83;;;20.23;;
39128;SDS011;24864;49.940;19.770;2023-08-06T03:23:20;36.88;;;21.45;;
39128;SDS011;24864;49.940;19.770;2023-08-06T03:25:49;32.72;;;21.83;;
39128;SDS011;24864;49.940;19.770;2023-08-06T03:28:17;30.90;;;20.80;;
39128;SDS011;24864;49.940;19.770;2023-08-06T03:30:45;32.85;;;22.15;;
39128;SDS011;24864;49.940;19.770;2023-08-06T03:33:13;37.35;;;22.38;;
39128;SDS011;24864;49.940;19.770;2023-08-06T03:35:43;35.95;;;21.92;;
39128;SDS011;24864;49.940;19.770;2023-08-06T03:38:11;34.63;;;21.52;;
39128;SDS011;24864;49.940;19.770;2023-08-06T03:40:39;39.70;;;22.33;;
39128;SDS011;24864;49.940;19.770;2023-08-06T03:43:07;56.60;;;23.02;;
39128;SDS011;24864;49.940;19.770;2023-08-06T03:45:35;56.30;;;23.65;;
39128;SDS011;24864;49.940;19.770;2023-08-06T03:48:03;157.27;;;28.27;;
39128;SDS011;24864;49.940;19.770;2023-08-06T03:50:32;492.98;;;40.10;;
39128;SDS011;24864;49.940;19.770;2023-08-06T03:53:01;257.10;;;30.65;;
39128;SDS011;24864;49.940;19.770;2023-08-06T03:55:30;359.77;;;35.60;;
39128;SDS011;24864;49.940;19.770;2023-08-06T03:57:58;300.77;;;31.08;;
39128;SDS011;24864;49.940;19.770;2023-08-06T04:00:26;445.27;;;36.42;;
39128;SDS011;24864;49.940;19.770;2023-08-06T04:02:54;261.23;;;34.80;;
39128;SDS011;24864;49.940;19.770;2023-08-06T04:05:23;529.97;;;46.90;;
39128;SDS011;24864;49.940;19.770;2023-08-06T04:07:51;457.13;;;43.65;;
39128;SDS011;24864;49.940;19.770;2023-08-06T04:10:21;196.77;;;30.60;;
39128;SDS011;24864;49.940;19.770;2023-08-06T04:12:49;542.10;;;44.53;;
39128;SDS011;24864;49.940;19.770;2023-08-06T04:15:17;594.90;;;51.13;;
39128;SDS011;24864;49.940;19.770;2023-08-06T04:17:45;478.85;;;43.97;;
39128;SDS011;24864;49.940;19.770;2023-08-06T04:20:14;557.03;;;45.95;;
39128;SDS011;24864;49.940;19.770;2023-08-06T04:22:41;672.38;;;51.97;;
39128;SDS011;24864;49.940;19.770;2023-08-06T04:25:10;548.05;;;43.83;;
39128;SDS011;24864;49.940;19.770;2023-08-06T04:27:39;492.10;;;43.50;;
39128;SDS011;24864;49.940;19.770;2023-08-06T04:30:08;271.98;;;35.47;;
39128;SDS011;24864;49.940;19.770;2023-08-06T04:32:38;78.70;;;23.40;;
39128;SDS011;24864;49.940;19.770;2023-08-06T04:35:07;161.00;;;27.35;;
39128;SDS011;24864;49.940;19.770;2023-08-06T04:37:35;299.67;;;33.58;;
39128;SDS011;24864;49.940;19.770;2023-08-06T04:40:03;144.80;;;26.17;;
39128;SDS011;24864;49.940;19.770;2023-08-06T04:42:32;70.65;;;21.42;;
39128;SDS011;24864;49.940;19.770;2023-08-06T04:45:02;36.30;;;18.40;;
39128;SDS011;24864;49.940;19.770;2023-08-06T04:47:30;29.08;;;19.88;;
39128;SDS011;24864;49.940;19.770;2023-08-06T04:49:59;41.15;;;21.27;;
39128;SDS011;24864;49.940;19.770;2023-08-06T04:52:27;56.28;;;18.90;;
39128;SDS011;24864;49.940;19.770;2023-08-06T04:54:56;367.20;;;35.92;;
39128;SDS011;24864;49.940;19.770;2023-08-06T04:57:24;433.65;;;35.30;;
39128;SDS011;24864;49.940;19.770;2023-08-06T04:59:52;199.05;;;23.55;;
39128;SDS011;24864;49.940;19.770;2023-08-06T05:02:21;475.25;;;40.45;;
39128;SDS011;24864;49.940;19.770;2023-08-06T05:04:50;348.30;;;33.17;;
39128;SDS011;24864;49.940;19.770;2023-08-06T05:07:18;591.53;;;42.67;;
39128;SDS011;24864;49.940;19.770;2023-08-06T05:09:46;496.50;;;36.53;;
39128;SDS011;24864;49.940;19.770;2023-08-06T05:12:14;655.42;;;41.72;;
39128;SDS011;24864;49.940;19.770;2023-08-06T05:14:42;693.22;;;41.05;;
39128;SDS011;24864;49.940;19.770;2023-08-06T05:17:11;132.00;;;17.98;;
39128;SDS011;24864;49.940;19.770;2023-08-06T05:19:40;254.05;;;20.88;;
39128;SDS011;24864;49.940;19.770;2023-08-06T05:22:08;61.13;;;14.98;;
39128;SDS011;24864;49.940;19.770;2023-08-06T05:24:37;18.00;;;12.10;;
39128;SDS011;24864;49.940;19.770;2023-08-06T05:27:05;230.07;;;23.20;;
39128;SDS011;24864;49.940;19.770;2023-08-06T05:29:33;147.52;;;17.33;;
39128;SDS011;24864;49.940;19.770;2023-08-06T05:32:01;339.15;;;29.77;;
39128;SDS011;24864;49.940;19.770;2023-08-06T05:34:30;59.70;;;13.50;;
39128;SDS011;24864;49.940;19.770;2023-08-06T05:37:00;15.65;;;11.13;;
39128;SDS011;24864;49.940;19.770;2023-08-06T05:39:28;14.85;;;10.35;;
39128;SDS011;24864;49.940;19.770;2023-08-06T05:41:56;73.45;;;14.20;;
39128;SDS011;24864;49.940;19.770;2023-08-06T05:44:24;435.83;;;33.20;;
39128;SDS011;24864;49.940;19.770;2023-08-06T05:46:52;19.73;;;10.02;;
39128;SDS011;24864;49.940;19.770;2023-08-06T05:49:20;16.52;;;11.32;;
39128;SDS011;24864;49.940;19.770;2023-08-06T05:51:48;14.30;;;9.63;;
39128;SDS011;24864;49.940;19.770;2023-08-06T05:54:21;11.35;;;9.43;;
39128;SDS011;24864;49.940;19.770;2023-08-06T05:56:49;340.48;;;30.05;;
39128;SDS011;24864;49.940;19.770;2023-08-06T05:59:18;10.40;;;8.85;;
39128;SDS011;24864;49.940;19.770;2023-08-06T06:01:46;15.82;;;10.77;;
39128;SDS011;24864;49.940;19.770;2023-08-06T06:04:14;11.75;;;10.55;;
39128;SDS011;24864;49.940;19.770;2023-08-06T06:06:42;14.35;;;10.52;;
39128;SDS011;24864;49.940;19.770;2023-08-06T06:09:11;13.57;;;11.00;;
39128;SDS011;24864;49.940;19.770;2023-08-06T06:11:40;19.58;;;11.93;;
39128;SDS011;24864;49.940;19.770;2023-08-06T06:14:09;12.48;;;11.15;;
39128;SDS011;24864;49.940;19.770;2023-08-06T06:16:37;17.95;;;12.25;;
39128;SDS011;24864;49.940;19.770;2023-08-06T06:19:05;22.33;;;13.50;;
39128;SDS011;24864;49.940;19.770;2023-08-06T06:21:33;20.08;;;14.10;;
39128;SDS011;24864;49.940;19.770;2023-08-06T06:24:01;19.30;;;13.23;;
39128;SDS011;24864;49.940;19.770;2023-08-06T06:26:30;20.90;;;13.63;;
39128;SDS011;24864;49.940;19.770;2023-08-06T06:28:59;17.83;;;13.43;;
39128;SDS011;24864;49.940;19.770;2023-08-06T06:31:27;27.70;;;14.02;;
39128;SDS011;24864;49.940;19.770;2023-08-06T06:33:56;19.45;;;14.68;;
39128;SDS011;24864;49.940;19.770;2023-08-06T06:36:24;25.08;;;14.65;;
39128;SDS011;24864;49.940;19.770;2023-08-06T06:38:53;17.85;;;13.57;;
39128;SDS011;24864;49.940;19.770;2023-08-06T06:41:21;24.65;;;14.63;;
39128;SDS011;24864;49.940;19.770;2023-08-06T06:43:49;25.67;;;15.68;;
39128;SDS011;24864;49.940;19.770;2023-08-06T06:46:18;18.33;;;14.88;;
39128;SDS011;24864;49.940;19.770;2023-08-06T06:48:46;22.60;;;14.70;;
39128;SDS011;24864;49.940;19.770;2023-08-06T06:51:15;16.52;;;13.75;;
39128;SDS011;24864;49.940;19.770;2023-08-06T06:53:43;14.15;;;11.38;;
39128;SDS011;24864;49.940;19.770;2023-08-06T06:56:11;18.58;;;10.02;;
39128;SDS011;24864;49.940;19.770;2023-08-06T06:58:39;9.60;;;8.60;;
39128;SDS011;24864;49.940;19.770;2023-08-06T07:01:07;5.40;;;4.90;;
39128;SDS011;24864;49.940;19.770;2023-08-06T07:03:38;4.18;;;3.35;;
39128;SDS011;24864;49.940;19.770;2023-08-06T07:06:06;2.40;;;2.13;;
39128;SDS011;24864;49.940;19.770;2023-08-06T07:08:34;4.20;;;1.70;;
39128;SDS011;24864;49.940;19.770;2023-08-06T07:11:03;1.50;;;1.40;;
39128;SDS011;24864;49.940;19.770;2023-08-06T07:13:32;2.42;;;0.85;;
39128;SDS011;24864;49.940;19.770;2023-08-06T07:16:01;3.40;;;1.20;;
39128;SDS011;24864;49.940;19.770;2023-08-06T07:18:29;5.53;;;1.20;;
39128;SDS011;24864;49.940;19.770;2023-08-06T07:20:59;3.75;;;0.52;;
39128;SDS011;24864;49.940;19.770;2023-08-06T07:23:27;0.77;;;0.40;;
39128;SDS011;24864;49.940;19.770;2023-08-06T07:25:55;1.90;;;0.68;;
39128;SDS011;24864;49.940;19.770;2023-08-06T07:28:23;0.98;;;0.50;;
39128;SDS011;24864;49.940;19.770;2023-08-06T07:30:51;0.55;;;0.30;;
39128;SDS011;24864;49.940;19.770;2023-08-06T07:33:19;1.38;;;0.60;;
39128;SDS011;24864;49.940;19.770;2023-08-06T07:35:47;0.57;;;0.32;;
39128;SDS011;24864;49.940;19.770;2023-08-06T07:38:17;1.95;;;0.30;;
39128;SDS011;24864;49.940;19.770;2023-08-06T07:40:45;3.15;;;0.85;;
39128;SDS011;24864;49.940;19.770;2023-08-06T07:43:13;1.70;;;0.70;;
39128;SDS011;24864;49.940;19.770;2023-08-06T07:45:41;0.82;;;0.30;;
39128;SDS011;24864;49.940;19.770;2023-08-06T07:48:09;1.00;;;0.30;;
39128;SDS011;24864;49.940;19.770;2023-08-06T07:50:37;1.27;;;0.38;;
39128;SDS011;24864;49.940;19.770;2023-08-06T07:53:05;2.67;;;0.32;;
39128;SDS011;24864;49.940;19.770;2023-08-06T07:55:36;1.05;;;0.30;;
39128;SDS011;24864;49.940;19.770;2023-08-06T07:58:04;0.90;;;0.30;;
39128;SDS011;24864;49.940;19.770;2023-08-06T08:00:32;1.60;;;0.40;;
39128;SDS011;24864;49.940;19.770;2023-08-06T08:03:00;0.52;;;0.30;;
39128;SDS011;24864;49.940;19.770;2023-08-06T08:05:28;0.82;;;0.30;;
39128;SDS011;24864;49.940;19.770;2023-08-06T08:07:57;1.02;;;0.38;;
39128;SDS011;24864;49.940;19.770;2023-08-06T08:10:25;1.05;;;0.30;;
39128;SDS011;24864;49.940;19.770;2023-08-06T08:12:55;0.73;;;0.20;;
39128;SDS011;24864;49.940;19.770;2023-08-06T08:15:23;0.47;;;0.28;;
39128;SDS011;24864;49.940;19.770;2023-08-06T08:17:52;1.70;;;0.25;;
39128;SDS011;24864;49.940;19.770;2023-08-06T08:20:21;0.40;;;0.30;;
39128;SDS011;24864;49.940;19.770;2023-08-06T08:22:49;1.00;;;0.73;;
39128;SDS011;24864;49.940;19.770;2023-08-06T08:25:17;1.23;;;0.60;;
39128;SDS011;24864;49.940;19.770;2023-08-06T08:27:45;0.70;;;0.40;;
39128;SDS011;24864;49.940;19.770;2023-08-06T08:30:14;0.68;;;0.50;;
39128;SDS011;24864;49.940;19.770;2023-08-06T08:32:43;3.83;;;0.70;;
39128;SDS011;24864;49.940;19.770;2023-08-06T08:35:11;1.02;;;0.50;;
39128;SDS011;24864;49.940;19.770;2023-08-06T08:37:39;1.80;;;0.60;;
39128;SDS011;24864;49.940;19.770;2023-08-06T08:40:08;1.80;;;0.50;;
39128;SDS011;24864;49.940;19.770;2023-08-06T08:42:37;0.50;;;0.30;;
39128;SDS011;24864;49.940;19.770;2023-08-06T08:45:06;0.40;;;0.40;;
39128;SDS011;24864;49.940;19.770;2023-08-06T08:47:41;1.95;;;0.50;;
39128;SDS011;24864;49.940;19.770;2023-08-06T08:50:10;3.08;;;0.40;;
39128;SDS011;24864;49.940;19.770;2023-08-06T08:52:39;1.27;;;0.50;;
39128;SDS011;24864;49.940;19.770;2023-08-06T08:55:08;0.65;;;0.50;;
39128;SDS011;24864;49.940;19.770;2023-08-06T08:57:36;0.50;;;0.30;;
39128;SDS011;24864;49.940;19.770;2023-08-06T09:00:05;1.27;;;0.35;;
39128;SDS011;24864;49.940;19.770;2023-08-06T09:02:34;0.43;;;0.30;;
39128;SDS011;24864;49.940;19.770;2023-08-06T09:05:04;0.40;;;0.40;;
39128;SDS011;24864;49.940;19.770;2023-08-06T09:07:34;0.88;;;0.55;;
39128;SDS011;24864;49.940;19.770;2023-08-06T09:10:05;2.80;;;0.50;;
39128;SDS011;24864;49.940;19.770;2023-08-06T09:12:35;0.45;;;0.40;;
39128;SDS011;24864;49.940;19.770;2023-08-06T09:15:03;0.88;;;0.40;;
39128;SDS011;24864;49.940;19.770;2023-08-06T09:17:32;1.20;;;0.70;;
39128;SDS011;24864;49.940;19.770;2023-08-06T09:20:09;2.17;;;0.60;;
39128;SDS011;24864;49.940;19.770;2023-08-06T09:22:39;5.88;;;2.88;;
39128;SDS011;24864;49.940;19.770;2023-08-06T09:25:07;1.25;;;0.85;;
39128;SDS011;24864;49.940;19.770;2023-08-06T09:27:37;0.73;;;0.40;;
39128;SDS011;24864;49.940;19.770;2023-08-06T09:30:06;1.48;;;0.60;;
39128;SDS011;24864;49.940;19.770;2023-08-06T09:32:44;0.63;;;0.60;;
39128;SDS011;24864;49.940;19.770;2023-08-06T09:35:18;0.85;;;0.55;;
39128;SDS011;24864;49.940;19.770;2023-08-06T09:37:47;12.32;;;4.72;;
39128;SDS011;24864;49.940;19.770;2023-08-06T09:40:24;0.98;;;0.70;;
39128;SDS011;24864;49.940;19.770;2023-08-06T09:42:54;2.38;;;0.70;;
39128;SDS011;24864;49.940;19.770;2023-08-06T09:45:22;0.80;;;0.70;;
39128;SDS011;24864;49.940;19.770;2023-08-06T09:47:52;1.48;;;0.80;;
39128;SDS011;24864;49.940;19.770;2023-08-06T09:50:27;0.60;;;0.55;;
39128;SDS011;24864;49.940;19.770;2023-08-06T09:52:57;3.17;;;0.70;;
39128;SDS011;24864;49.940;19.770;2023-08-06T09:55:25;0.68;;;0.60;;
39128;SDS011;24864;49.940;19.770;2023-08-06T09:57:54;0.50;;;0.50;;
39128;SDS011;24864;49.940;19.770;2023-08-06T10:00:23;0.70;;;0.63;;
39128;SDS011;24864;49.940;19.770;2023-08-06T10:02:51;1.27;;;0.80;;
39128;SDS011;24864;49.940;19.770;2023-08-06T10:05:22;1.23;;;0.90;;
39128;SDS011;24864;49.940;19.770;2023-08-06T10:07:52;0.98;;;0.77;;
39128;SDS011;24864;49.940;19.770;2023-08-06T10:10:22;1.50;;;0.98;;
39128;SDS011;24864;49.940;19.770;2023-08-06T10:12:51;1.77;;;0.85;;
39128;SDS011;24864;49.940;19.770;2023-08-06T10:15:22;0.75;;;0.63;;
39128;SDS011;24864;49.940;19.770;2023-08-06T10:17:56;1.42;;;0.85;;
39128;SDS011;24864;49.940;19.770;2023-08-06T10:20:26;1.33;;;0.80;;
39128;SDS011;24864;49.940;19.770;2023-08-06T10:23:01;2.13;;;0.90;;
39128;SDS011;24864;49.940;19.770;2023-08-06T10:25:30;2.65;;;1.25;;
39128;SDS011;24864;49.940;19.770;2023-08-06T10:28:00;2.30;;;1.45;;
39128;SDS011;24864;49.940;19.770;2023-08-06T10:30:29;5.50;;;1.52;;
39128;SDS011;24864;49.940;19.770;2023-08-06T10:32:59;5.53;;;1.75;;
39128;SDS011;24864;49.940;19.770;2023-08-06T10:35:29;3.30;;;1.00;;
39128;SDS011;24864;49.940;19.770;2023-08-06T10:37:59;1.98;;;0.90;;
39128;SDS011;24864;49.940;19.770;2023-08-06T10:40:31;1.33;;;0.68;;
39128;SDS011;24864;49.940;19.770;2023-08-06T10:42:59;0.90;;;0.85;;
39128;SDS011;24864;49.940;19.770;2023-08-06T10:45:28;1.38;;;0.70;;
39128;SDS011;24864;49.940;19.770;2023-08-06T10:47:57;1.02;;;0.55;;
39128;SDS011;24864;49.940;19.770;2023-08-06T10:50:25;1.08;;;0.70;;
39128;SDS011;24864;49.940;19.770;2023-08-06T10:52:55;1.50;;;0.80;;
39128;SDS011;24864;49.940;19.770;2023-08-06T10:55:24;0.70;;;0.60;;
39128;SDS011;24864;49.940;19.770;2023-08-06T10:57:53;1.33;;;0.80;;
39128;SDS011;24864;49.940;19.770;2023-08-06T11:00:22;0.57;;;0.50;;
39128;SDS011;24864;49.940;19.770;2023-08-06T11:02:51;2.13;;;0.65;;
39128;SDS011;24864;49.940;19.770;2023-08-06T11:05:19;1.33;;;0.80;;
39128;SDS011;24864;49.940;19.770;2023-08-06T11:07:48;0.85;;;0.68;;
39128;SDS011;24864;49.940;19.770;2023-08-06T11:10:18;0.80;;;0.70;;
39128;SDS011;24864;49.940;19.770;2023-08-06T11:12:47;0.60;;;0.60;;
39128;SDS011;24864;49.940;19.770;2023-08-06T11:15:15;0.88;;;0.60;;
39128;SDS011;24864;49.940;19.770;2023-08-06T11:17:43;0.50;;;0.50;;
39128;SDS011;24864;49.940;19.770;2023-08-06T11:20:11;0.98;;;0.52;;
39128;SDS011;24864;49.940;19.770;2023-08-06T11:22:43;1.15;;;0.60;;
39128;SDS011;24864;49.940;19.770;2023-08-06T11:25:11;1.40;;;0.85;;
39128;SDS011;24864;49.940;19.770;2023-08-06T11:27:41;2.08;;;0.60;;
39128;SDS011;24864;49.940;19.770;2023-08-06T11:30:10;1.88;;;1.60;;
39128;SDS011;24864;49.940;19.770;2023-08-06T11:32:45;2.00;;;1.50;;
39128;SDS011;24864;49.940;19.770;2023-08-06T11:35:14;1.00;;;0.90;;
39128;SDS011;24864;49.940;19.770;2023-08-06T11:37:43;1.17;;;0.60;;
39128;SDS011;24864;49.940;19.770;2023-08-06T11:40:13;0.80;;;0.60;;
39128;SDS011;24864;49.940;19.770;2023-08-06T11:42:45;2.10;;;0.90;;
39128;SDS011;24864;49.940;19.770;2023-08-06T11:45:14;0.93;;;0.70;;
39128;SDS011;24864;49.940;19.770;2023-08-06T11:47:42;1.05;;;0.68;;
39128;SDS011;24864;49.940;19.770;2023-08-06T11:50:21;1.95;;;0.68;;
39128;SDS011;24864;49.940;19.770;2023-08-06T11:52:52;1.23;;;1.10;;
39128;SDS011;24864;49.940;19.770;2023-08-06T11:55:22;1.70;;;0.65;;
39128;SDS011;24864;49.940;19.770;2023-08-06T11:57:52;1.20;;;0.60;;
39128;SDS011;24864;49.940;19.770;2023-08-06T12:00:22;0.65;;;0.40;;
39128;SDS011;24864;49.940;19.770;2023-08-06T12:02:51;1.10;;;0.47;;
39128;SDS011;24864;49.940;19.770;2023-08-06T12:05:22;4.28;;;1.40;;
39128;SDS011;24864;49.940;19.770;2023-08-06T12:07:51;10.10;;;8.35;;
39128;SDS011;24864;49.940;19.770;2023-08-06T12:10:21;2.17;;;1.38;;
39128;SDS011;24864;49.940;19.770;2023-08-06T12:12:50;0.60;;;0.50;;
39128;SDS011;24864;49.940;19.770;2023-08-06T12:15:19;2.45;;;1.98;;
39128;SDS011;24864;49.940;19.770;2023-08-06T12:17:48;5.40;;;1.00;;
39128;SDS011;24864;49.940;19.770;2023-08-06T12:20:16;0.65;;;0.40;;
39128;SDS011;24864;49.940;19.770;2023-08-06T12:22:44;0.80;;;0.50;;
39128;SDS011;24864;49.940;19.770;2023-08-06T12:25:13;0.40;;;0.30;;
39128;SDS011;24864;49.940;19.770;2023-08-06T12:27:42;1.05;;;0.55;;
39128;SDS011;24864;49.940;19.770;2023-08-06T12:30:11;0.47;;;0.40;;
39128;SDS011;24864;49.940;19.770;2023-08-06T12:32:41;0.40;;;0.38;;
39128;SDS011;24864;49.940;19.770;2023-08-06T12:35:09;0.25;;;0.20;;
39128;SDS011;24864;49.940;19.770;2023-08-06T12:37:38;1.30;;;0.70;;
39128;SDS011;24864;49.940;19.770;2023-08-06T12:40:06;4.68;;;2.35;;
39128;SDS011;24864;49.940;19.770;2023-08-06T12:42:55;0.40;;;0.35;;
39128;SDS011;24864;49.940;19.770;2023-08-06T12:45:25;0.70;;;0.38;;
39128;SDS011;24864;49.940;19.770;2023-08-06T12:47:55;0.85;;;0.40;;
39128;SDS011;24864;49.940;19.770;2023-08-06T12:50:23;0.43;;;0.30;;
39128;SDS011;24864;49.940;19.770;2023-08-06T12:52:51;0.30;;;0.30;;
39128;SDS011;24864;49.940;19.770;2023-08-06T12:55:19;0.60;;;0.50;;
39128;SDS011;24864;49.940;19.770;2023-08-06T12:57:47;1.15;;;0.80;;
39128;SDS011;24864;49.940;19.770;2023-08-06T13:00:23;1.58;;;0.82;;
39128;SDS011;24864;49.940;19.770;2023-08-06T13:02:52;0.55;;;0.38;;
39128;SDS011;24864;49.940;19.770;2023-08-06T13:05:22;0.40;;;0.30;;
39128;SDS011;24864;49.940;19.770;2023-08-06T13:07:50;1.00;;;0.50;;
39128;SDS011;24864;49.940;19.770;2023-08-06T13:10:18;0.70;;;0.70;;
39128;SDS011;24864;49.940;19.770;2023-08-06T13:12:47;1.02;;;0.75;;
39128;SDS011;24864;49.940;19.770;2023-08-06T13:15:16;2.83;;;0.43;;
39128;SDS011;24864;49.940;19.770;2023-08-06T13:17:46;0.73;;;0.47;;
39128;SDS011;24864;49.940;19.770;2023-08-06T13:20:14;1.50;;;0.65;;
39128;SDS011;24864;49.940;19.770;2023-08-06T13:22:47;0.98;;;0.68;;
39128;SDS011;24864;49.940;19.770;2023-08-06T13:25:17;1.75;;;0.70;;
39128;SDS011;24864;49.940;19.770;2023-08-06T13:27:46;1.98;;;0.80;;
39128;SDS011;24864;49.940;19.770;2023-08-06T13:30:15;1.25;;;0.60;;
39128;SDS011;24864;49.940;19.770;2023-08-06T13:32:44;1.42;;;1.05;;
39128;SDS011;24864;49.940;19.770;2023-08-06T13:35:12;1.73;;;1.48;;
39128;SDS011;24864;49.940;19.770;2023-08-06T13:37:40;13.90;;;6.07;;
39128;SDS011;24864;49.940;19.770;2023-08-06T13:40:10;4.47;;;1.55;;
39128;SDS011;24864;49.940;19.770;2023-08-06T13:42:39;5.13;;;1.20;;
39128;SDS011;24864;49.940;19.770;2023-08-06T13:45:07;0.93;;;0.68;;
39128;SDS011;24864;49.940;19.770;2023-08-06T13:47:36;2.40;;;1.05;;
39128;SDS011;24864;49.940;19.770;2023-08-06T13:50:04;6.93;;;1.05;;
39128;SDS011;24864;49.940;19.770;2023-08-06T13:52:33;1.67;;;0.95;;
39128;SDS011;24864;49.940;19.770;2023-08-06T13:55:01;1.30;;;0.63;;
39128;SDS011;24864;49.940;19.770;2023-08-06T13:57:32;1.50;;;0.60;;
39128;SDS011;24864;49.940;19.770;2023-08-06T14:00:01;6.68;;;0.90;;
39128;SDS011;24864;49.940;19.770;2023-08-06T14:02:29;1.55;;;0.70;;
39128;SDS011;24864;49.940;19.770;2023-08-06T14:04:57;1.33;;;0.70;;
39128;SDS011;24864;49.940;19.770;2023-08-06T14:07:26;1.10;;;0.85;;
39128;SDS011;24864;49.940;19.770;2023-08-06T14:09:54;0.85;;;0.63;;
39128;SDS011;24864;49.940;19.770;2023-08-06T14:12:24;1.63;;;1.20;;
39128;SDS011;24864;49.940;19.770;2023-08-06T14:14:53;0.60;;;0.60;;
39128;SDS011;24864;49.940;19.770;2023-08-06T14:17:21;1.30;;;0.73;;
39128;SDS011;24864;49.940;19.770;2023-08-06T14:19:49;1.67;;;0.70;;
39128;SDS011;24864;49.940;19.770;2023-08-06T14:22:17;4.20;;;2.25;;
39128;SDS011;24864;49.940;19.770;2023-08-06T14:24:45;0.98;;;0.52;;
39128;SDS011;24864;49.940;19.770;2023-08-06T14:27:14;1.10;;;0.60;;
39128;SDS011;24864;49.940;19.770;2023-08-06T14:29:42;1.00;;;0.70;;
39128;SDS011;24864;49.940;19.770;2023-08-06T14:32:12;2.88;;;0.52;;
39128;SDS011;24864;49.940;19.770;2023-08-06T14:34:41;1.48;;;0.50;;